sensor_id;sensor_type;location;lat;lon;timestamp;P1;durP1;ratioP1;P2;durP2;ratioP2
49826;SDS011;35715;51.570;6.036;2022-10-31T00:00:52;18.70;;;12.15;;
49826;SDS011;35715;51.570;6.036;2022-10-31T00:03:18;26.67;;;13.20;;
49826;SDS011;35715;51.570;6.036;2022-10-31T00:08:18;23.05;;;15.05;;
49826;SDS011;35715;51.570;6.036;2022-10-31T00:10:44;24.27;;;14.98;;
49826;SDS011;35715;51.570;6.036;2022-10-31T00:13:11;20.35;;;14.55;;
49826;SDS011;35715;51.570;6.036;2022-10-31T00:15:41;25.45;;;13.90;;
49826;SDS011;35715;51.570;6.036;2022-10-31T00:18:07;21.70;;;14.33;;
49826;SDS011;35715;51.570;6.036;2022-10-31T00:20:33;21.40;;;15.30;;
49826;SDS011;35715;51.570;6.036;2022-10-31T00:22:59;22.08;;;14.63;;
49826;SDS011;35715;51.570;6.036;2022-10-31T00:25:26;21.27;;;14.43;;
49826;SDS011;35715;51.570;6.036;2022-10-31T00:27:53;23.08;;;15.43;;
49826;SDS011;35715;51.570;6.036;2022-10-31T00:30:18;26.25;;;15.88;;
49826;SDS011;35715;51.570;6.036;2022-10-31T00:32:44;22.58;;;13.55;;
49826;SDS011;35715;51.570;6.036;2022-10-31T00:35:10;19.15;;;15.25;;
49826;SDS011;35715;51.570;6.036;2022-10-31T00:37:36;21.23;;;14.90;;
49826;SDS011;35715;51.570;6.036;2022-10-31T00:40:01;21.77;;;14.25;;
49826;SDS011;35715;51.570;6.036;2022-10-31T00:42:26;25.20;;;16.35;;
49826;SDS011;35715;51.570;6.036;2022-10-31T00:44:52;19.75;;;13.68;;
49826;SDS011;35715;51.570;6.036;2022-10-31T00:47:22;18.50;;;14.55;;
49826;SDS011;35715;51.570;6.036;2022-10-31T00:49:47;23.52;;;15.82;;
49826;SDS011;35715;51.570;6.036;2022-10-31T00:52:13;22.45;;;14.63;;
49826;SDS011;35715;51.570;6.036;2022-10-31T00:54:38;27.08;;;16.67;;
49826;SDS011;35715;51.570;6.036;2022-10-31T00:57:06;22.25;;;15.05;;
49826;SDS011;35715;51.570;6.036;2022-10-31T00:59:32;18.55;;;14.27;;
49826;SDS011;35715;51.570;6.036;2022-10-31T01:01:57;17.23;;;15.25;;
49826;SDS011;35715;51.570;6.036;2022-10-31T01:04:22;38.55;;;17.33;;
49826;SDS011;35715;51.570;6.036;2022-10-31T01:06:52;25.40;;;15.77;;
49826;SDS011;35715;51.570;6.036;2022-10-31T01:09:17;20.38;;;15.15;;
49826;SDS011;35715;51.570;6.036;2022-10-31T01:11:42;20.00;;;15.35;;
49826;SDS011;35715;51.570;6.036;2022-10-31T01:14:08;34.63;;;18.40;;
49826;SDS011;35715;51.570;6.036;2022-10-31T01:16:37;16.13;;;13.55;;
49826;SDS011;35715;51.570;6.036;2022-10-31T01:19:02;37.85;;;17.80;;
49826;SDS011;35715;51.570;6.036;2022-10-31T01:21:28;19.45;;;15.73;;
49826;SDS011;35715;51.570;6.036;2022-10-31T01:23:54;24.67;;;18.40;;
49826;SDS011;35715;51.570;6.036;2022-10-31T01:31:19;22.40;;;18.65;;
49826;SDS011;35715;51.570;6.036;2022-10-31T01:33:45;26.63;;;18.70;;
49826;SDS011;35715;51.570;6.036;2022-10-31T01:36:32;23.20;;;16.38;;
49826;SDS011;35715;51.570;6.036;2022-10-31T01:39:01;19.20;;;14.07;;
49826;SDS011;35715;51.570;6.036;2022-10-31T01:41:33;28.00;;;17.52;;
49826;SDS011;35715;51.570;6.036;2022-10-31T01:44:02;23.58;;;16.75;;
49826;SDS011;35715;51.570;6.036;2022-10-31T01:49:56;27.20;;;17.83;;
49826;SDS011;35715;51.570;6.036;2022-10-31T01:55:13;20.40;;;16.20;;
49826;SDS011;35715;51.570;6.036;2022-10-31T01:57:43;20.50;;;16.52;;
49826;SDS011;35715;51.570;6.036;2022-10-31T02:00:12;23.88;;;17.25;;
49826;SDS011;35715;51.570;6.036;2022-10-31T02:02:39;25.65;;;17.60;;
49826;SDS011;35715;51.570;6.036;2022-10-31T02:05:12;31.80;;;20.75;;
49826;SDS011;35715;51.570;6.036;2022-10-31T02:07:48;24.42;;;19.45;;
49826;SDS011;35715;51.570;6.036;2022-10-31T02:10:19;33.22;;;20.13;;
49826;SDS011;35715;51.570;6.036;2022-10-31T02:12:47;26.00;;;18.98;;
49826;SDS011;35715;51.570;6.036;2022-10-31T02:15:15;21.27;;;16.05;;
49826;SDS011;35715;51.570;6.036;2022-10-31T02:17:40;35.85;;;18.88;;
49826;SDS011;35715;51.570;6.036;2022-10-31T02:20:10;21.80;;;15.95;;
49826;SDS011;35715;51.570;6.036;2022-10-31T02:23:12;23.85;;;16.88;;
49826;SDS011;35715;51.570;6.036;2022-10-31T02:33:14;29.88;;;17.95;;
49826;SDS011;35715;51.570;6.036;2022-10-31T02:36:05;28.50;;;19.20;;
49826;SDS011;35715;51.570;6.036;2022-10-31T02:41:31;22.27;;;15.77;;
49826;SDS011;35715;51.570;6.036;2022-10-31T02:44:04;23.58;;;16.63;;
49826;SDS011;35715;51.570;6.036;2022-10-31T02:46:50;20.95;;;16.60;;
49826;SDS011;35715;51.570;6.036;2022-10-31T02:49:34;42.83;;;18.38;;
49826;SDS011;35715;51.570;6.036;2022-10-31T02:52:32;22.30;;;16.85;;
49826;SDS011;35715;51.570;6.036;2022-10-31T02:54:57;24.05;;;15.05;;
49826;SDS011;35715;51.570;6.036;2022-10-31T02:57:25;25.33;;;16.45;;
49826;SDS011;35715;51.570;6.036;2022-10-31T03:00:14;21.80;;;15.55;;
49826;SDS011;35715;51.570;6.036;2022-10-31T03:05:37;14.88;;;13.05;;
49826;SDS011;35715;51.570;6.036;2022-10-31T03:08:17;21.30;;;15.10;;
49826;SDS011;35715;51.570;6.036;2022-10-31T03:10:59;21.33;;;14.20;;
49826;SDS011;35715;51.570;6.036;2022-10-31T03:14:17;20.30;;;15.55;;
49826;SDS011;35715;51.570;6.036;2022-10-31T03:24:12;19.42;;;14.90;;
49826;SDS011;35715;51.570;6.036;2022-10-31T03:26:41;21.10;;;14.00;;
49826;SDS011;35715;51.570;6.036;2022-10-31T03:29:12;19.23;;;16.08;;
49826;SDS011;35715;51.570;6.036;2022-10-31T03:31:44;19.83;;;16.30;;
49826;SDS011;35715;51.570;6.036;2022-10-31T03:34:14;16.92;;;13.27;;
49826;SDS011;35715;51.570;6.036;2022-10-31T03:36:42;21.63;;;14.75;;
49826;SDS011;35715;51.570;6.036;2022-10-31T03:39:12;21.05;;;15.07;;
49826;SDS011;35715;51.570;6.036;2022-10-31T03:41:41;25.65;;;17.92;;
49826;SDS011;35715;51.570;6.036;2022-10-31T03:44:17;20.35;;;16.38;;
49826;SDS011;35715;51.570;6.036;2022-10-31T03:46:46;16.13;;;13.68;;
49826;SDS011;35715;51.570;6.036;2022-10-31T03:49:11;20.38;;;15.00;;
49826;SDS011;35715;51.570;6.036;2022-10-31T03:51:45;17.63;;;13.27;;
49826;SDS011;35715;51.570;6.036;2022-10-31T03:57:13;20.75;;;14.63;;
49826;SDS011;35715;51.570;6.036;2022-10-31T04:00:08;21.35;;;13.55;;
49826;SDS011;35715;51.570;6.036;2022-10-31T04:02:37;16.63;;;13.15;;
49826;SDS011;35715;51.570;6.036;2022-10-31T04:07:53;18.75;;;12.40;;
49826;SDS011;35715;51.570;6.036;2022-10-31T04:10:21;14.55;;;11.40;;
49826;SDS011;35715;51.570;6.036;2022-10-31T04:12:49;19.20;;;11.52;;
49826;SDS011;35715;51.570;6.036;2022-10-31T04:17:45;12.85;;;10.98;;
49826;SDS011;35715;51.570;6.036;2022-10-31T04:20:15;12.50;;;11.20;;
49826;SDS011;35715;51.570;6.036;2022-10-31T04:22:42;14.00;;;12.43;;
49826;SDS011;35715;51.570;6.036;2022-10-31T04:25:07;22.23;;;13.80;;
49826;SDS011;35715;51.570;6.036;2022-10-31T04:27:33;18.30;;;15.18;;
49826;SDS011;35715;51.570;6.036;2022-10-31T04:29:58;21.88;;;15.80;;
49826;SDS011;35715;51.570;6.036;2022-10-31T04:32:24;15.80;;;11.70;;
49826;SDS011;35715;51.570;6.036;2022-10-31T04:34:51;15.90;;;12.05;;
49826;SDS011;35715;51.570;6.036;2022-10-31T04:37:25;19.60;;;13.25;;
49826;SDS011;35715;51.570;6.036;2022-10-31T04:39:50;14.93;;;11.73;;
49826;SDS011;35715;51.570;6.036;2022-10-31T04:42:15;17.85;;;12.45;;
49826;SDS011;35715;51.570;6.036;2022-10-31T04:44:41;20.35;;;13.15;;
49826;SDS011;35715;51.570;6.036;2022-10-31T04:47:06;13.52;;;11.75;;
49826;SDS011;35715;51.570;6.036;2022-10-31T04:49:31;20.55;;;12.57;;
49826;SDS011;35715;51.570;6.036;2022-10-31T04:51:57;22.30;;;11.95;;
49826;SDS011;35715;51.570;6.036;2022-10-31T04:54:22;10.13;;;8.50;;
49826;SDS011;35715;51.570;6.036;2022-10-31T04:57:01;12.40;;;10.88;;
49826;SDS011;35715;51.570;6.036;2022-10-31T04:59:26;12.70;;;10.70;;
49826;SDS011;35715;51.570;6.036;2022-10-31T05:01:52;18.33;;;13.18;;
49826;SDS011;35715;51.570;6.036;2022-10-31T05:04:17;15.45;;;11.95;;
49826;SDS011;35715;51.570;6.036;2022-10-31T05:06:53;18.00;;;11.50;;
49826;SDS011;35715;51.570;6.036;2022-10-31T05:09:18;22.25;;;13.40;;
49826;SDS011;35715;51.570;6.036;2022-10-31T05:11:47;18.10;;;12.98;;
49826;SDS011;35715;51.570;6.036;2022-10-31T05:14:12;21.65;;;14.13;;
49826;SDS011;35715;51.570;6.036;2022-10-31T05:19:07;15.43;;;12.90;;
49826;SDS011;35715;51.570;6.036;2022-10-31T05:21:32;18.98;;;12.65;;
49826;SDS011;35715;51.570;6.036;2022-10-31T05:23:58;17.65;;;12.40;;
49826;SDS011;35715;51.570;6.036;2022-10-31T05:26:25;15.23;;;12.55;;
49826;SDS011;35715;51.570;6.036;2022-10-31T05:28:50;14.23;;;12.40;;
49826;SDS011;35715;51.570;6.036;2022-10-31T05:31:16;14.32;;;10.98;;
49826;SDS011;35715;51.570;6.036;2022-10-31T05:33:41;11.25;;;10.10;;
49826;SDS011;35715;51.570;6.036;2022-10-31T05:36:24;14.45;;;12.55;;
49826;SDS011;35715;51.570;6.036;2022-10-31T05:38:49;10.43;;;8.30;;
49826;SDS011;35715;51.570;6.036;2022-10-31T05:41:14;9.30;;;8.40;;
49826;SDS011;35715;51.570;6.036;2022-10-31T05:43:40;10.70;;;9.65;;
49826;SDS011;35715;51.570;6.036;2022-10-31T05:46:06;10.98;;;9.88;;
49826;SDS011;35715;51.570;6.036;2022-10-31T05:48:31;14.00;;;10.18;;
49826;SDS011;35715;51.570;6.036;2022-10-31T05:50:57;17.73;;;10.23;;
49826;SDS011;35715;51.570;6.036;2022-10-31T05:53:22;12.90;;;10.13;;
49826;SDS011;35715;51.570;6.036;2022-10-31T05:55:48;14.57;;;11.00;;
49826;SDS011;35715;51.570;6.036;2022-10-31T05:58:13;16.27;;;10.40;;
49826;SDS011;35715;51.570;6.036;2022-10-31T06:00:39;18.90;;;11.73;;
49826;SDS011;35715;51.570;6.036;2022-10-31T06:03:06;11.57;;;9.20;;
49826;SDS011;35715;51.570;6.036;2022-10-31T06:05:35;18.02;;;11.32;;
49826;SDS011;35715;51.570;6.036;2022-10-31T06:08:00;24.55;;;11.75;;
49826;SDS011;35715;51.570;6.036;2022-10-31T06:10:26;12.70;;;11.40;;
49826;SDS011;35715;51.570;6.036;2022-10-31T06:12:52;15.80;;;12.50;;
49826;SDS011;35715;51.570;6.036;2022-10-31T06:15:18;14.77;;;10.68;;
49826;SDS011;35715;51.570;6.036;2022-10-31T06:17:44;16.35;;;10.98;;
49826;SDS011;35715;51.570;6.036;2022-10-31T06:20:09;14.02;;;12.43;;
49826;SDS011;35715;51.570;6.036;2022-10-31T06:22:35;18.15;;;13.80;;
49826;SDS011;35715;51.570;6.036;2022-10-31T06:25:00;22.63;;;15.52;;
49826;SDS011;35715;51.570;6.036;2022-10-31T06:27:26;20.90;;;14.05;;
49826;SDS011;35715;51.570;6.036;2022-10-31T06:29:52;16.85;;;13.65;;
49826;SDS011;35715;51.570;6.036;2022-10-31T06:32:17;24.75;;;16.13;;
49826;SDS011;35715;51.570;6.036;2022-10-31T06:34:43;29.50;;;17.98;;
49826;SDS011;35715;51.570;6.036;2022-10-31T06:37:09;30.27;;;19.08;;
49826;SDS011;35715;51.570;6.036;2022-10-31T06:39:36;51.25;;;22.55;;
49826;SDS011;35715;51.570;6.036;2022-10-31T06:42:02;22.63;;;17.95;;
49826;SDS011;35715;51.570;6.036;2022-10-31T06:44:27;26.95;;;18.55;;
49826;SDS011;35715;51.570;6.036;2022-10-31T06:47:09;28.90;;;17.88;;
49826;SDS011;35715;51.570;6.036;2022-10-31T06:49:34;27.33;;;19.65;;
49826;SDS011;35715;51.570;6.036;2022-10-31T06:51:59;26.27;;;20.10;;
49826;SDS011;35715;51.570;6.036;2022-10-31T06:54:25;27.35;;;19.92;;
49826;SDS011;35715;51.570;6.036;2022-10-31T06:56:51;29.23;;;19.98;;
49826;SDS011;35715;51.570;6.036;2022-10-31T06:59:16;26.73;;;21.08;;
49826;SDS011;35715;51.570;6.036;2022-10-31T07:01:42;25.15;;;18.35;;
49826;SDS011;35715;51.570;6.036;2022-10-31T07:04:11;26.83;;;18.08;;
49826;SDS011;35715;51.570;6.036;2022-10-31T07:06:39;24.98;;;17.77;;
49826;SDS011;35715;51.570;6.036;2022-10-31T07:09:05;23.95;;;19.33;;
49826;SDS011;35715;51.570;6.036;2022-10-31T07:11:30;29.35;;;19.00;;
49826;SDS011;35715;51.570;6.036;2022-10-31T07:13:56;26.25;;;17.92;;
49826;SDS011;35715;51.570;6.036;2022-10-31T07:16:39;24.85;;;18.65;;
49826;SDS011;35715;51.570;6.036;2022-10-31T07:19:04;25.52;;;20.60;;
49826;SDS011;35715;51.570;6.036;2022-10-31T07:21:29;35.05;;;20.00;;
49826;SDS011;35715;51.570;6.036;2022-10-31T07:23:54;27.23;;;17.98;;
49826;SDS011;35715;51.570;6.036;2022-10-31T07:26:21;27.60;;;18.98;;
49826;SDS011;35715;51.570;6.036;2022-10-31T07:28:46;27.05;;;17.98;;
49826;SDS011;35715;51.570;6.036;2022-10-31T07:31:12;27.63;;;18.75;;
49826;SDS011;35715;51.570;6.036;2022-10-31T07:33:38;24.25;;;18.08;;
49826;SDS011;35715;51.570;6.036;2022-10-31T07:36:05;21.48;;;17.05;;
49826;SDS011;35715;51.570;6.036;2022-10-31T07:38:31;21.73;;;14.68;;
49826;SDS011;35715;51.570;6.036;2022-10-31T07:40:56;18.83;;;15.68;;
49826;SDS011;35715;51.570;6.036;2022-10-31T07:43:22;29.85;;;16.35;;
49826;SDS011;35715;51.570;6.036;2022-10-31T07:45:59;25.48;;;17.05;;
49826;SDS011;35715;51.570;6.036;2022-10-31T07:48:25;21.63;;;14.90;;
49826;SDS011;35715;51.570;6.036;2022-10-31T07:50:50;23.15;;;17.02;;
49826;SDS011;35715;51.570;6.036;2022-10-31T07:53:15;19.98;;;13.70;;
49826;SDS011;35715;51.570;6.036;2022-10-31T07:58:10;19.02;;;14.05;;
49826;SDS011;35715;51.570;6.036;2022-10-31T08:00:38;17.17;;;13.95;;
49826;SDS011;35715;51.570;6.036;2022-10-31T08:03:08;19.05;;;14.10;;
49826;SDS011;35715;51.570;6.036;2022-10-31T08:05:51;27.73;;;17.48;;
49826;SDS011;35715;51.570;6.036;2022-10-31T08:08:17;22.75;;;14.57;;
49826;SDS011;35715;51.570;6.036;2022-10-31T08:10:42;16.30;;;14.25;;
49826;SDS011;35715;51.570;6.036;2022-10-31T08:13:09;18.73;;;14.40;;
49826;SDS011;35715;51.570;6.036;2022-10-31T08:15:38;40.30;;;19.42;;
49826;SDS011;35715;51.570;6.036;2022-10-31T08:20:32;20.20;;;16.55;;
49826;SDS011;35715;51.570;6.036;2022-10-31T08:23:01;27.60;;;17.98;;
49826;SDS011;35715;51.570;6.036;2022-10-31T08:25:36;23.45;;;15.45;;
49826;SDS011;35715;51.570;6.036;2022-10-31T08:28:02;20.80;;;16.85;;
49826;SDS011;35715;51.570;6.036;2022-10-31T08:30:28;23.40;;;17.15;;
49826;SDS011;35715;51.570;6.036;2022-10-31T08:33:06;20.42;;;16.20;;
49826;SDS011;35715;51.570;6.036;2022-10-31T08:35:35;23.42;;;18.38;;
49826;SDS011;35715;51.570;6.036;2022-10-31T08:38:00;23.35;;;17.00;;
49826;SDS011;35715;51.570;6.036;2022-10-31T08:40:27;22.15;;;16.90;;
49826;SDS011;35715;51.570;6.036;2022-10-31T08:43:01;24.15;;;18.70;;
49826;SDS011;35715;51.570;6.036;2022-10-31T08:45:42;20.92;;;17.88;;
49826;SDS011;35715;51.570;6.036;2022-10-31T08:48:10;24.95;;;17.92;;
49826;SDS011;35715;51.570;6.036;2022-10-31T08:50:37;29.95;;;18.60;;
49826;SDS011;35715;51.570;6.036;2022-10-31T08:53:10;23.17;;;18.23;;
49826;SDS011;35715;51.570;6.036;2022-10-31T08:55:41;26.15;;;19.95;;
49826;SDS011;35715;51.570;6.036;2022-10-31T08:58:12;30.35;;;20.17;;
49826;SDS011;35715;51.570;6.036;2022-10-31T09:00:39;30.13;;;20.17;;
49826;SDS011;35715;51.570;6.036;2022-10-31T09:03:15;36.00;;;20.60;;
49826;SDS011;35715;51.570;6.036;2022-10-31T09:05:43;27.77;;;19.27;;
49826;SDS011;35715;51.570;6.036;2022-10-31T09:08:09;35.70;;;19.13;;
49826;SDS011;35715;51.570;6.036;2022-10-31T09:10:35;27.65;;;20.58;;
49826;SDS011;35715;51.570;6.036;2022-10-31T09:13:02;25.08;;;20.20;;
49826;SDS011;35715;51.570;6.036;2022-10-31T09:15:34;23.17;;;20.30;;
49826;SDS011;35715;51.570;6.036;2022-10-31T09:18:01;31.80;;;21.08;;
49826;SDS011;35715;51.570;6.036;2022-10-31T09:20:27;30.42;;;23.02;;
49826;SDS011;35715;51.570;6.036;2022-10-31T09:22:57;39.75;;;25.80;;
49826;SDS011;35715;51.570;6.036;2022-10-31T09:25:27;35.22;;;23.23;;
49826;SDS011;35715;51.570;6.036;2022-10-31T09:27:56;25.10;;;19.40;;
49826;SDS011;35715;51.570;6.036;2022-10-31T09:30:22;30.67;;;19.10;;
49826;SDS011;35715;51.570;6.036;2022-10-31T09:32:48;25.17;;;17.15;;
49826;SDS011;35715;51.570;6.036;2022-10-31T09:35:14;32.85;;;19.48;;
49826;SDS011;35715;51.570;6.036;2022-10-31T09:37:39;35.45;;;19.17;;
49826;SDS011;35715;51.570;6.036;2022-10-31T09:40:05;28.50;;;17.48;;
49826;SDS011;35715;51.570;6.036;2022-10-31T09:50:12;33.38;;;20.00;;
49826;SDS011;35715;51.570;6.036;2022-10-31T09:52:44;23.90;;;15.82;;
49826;SDS011;35715;51.570;6.036;2022-10-31T09:55:43;26.52;;;16.65;;
49826;SDS011;35715;51.570;6.036;2022-10-31T09:58:23;25.15;;;18.02;;
49826;SDS011;35715;51.570;6.036;2022-10-31T10:00:51;25.40;;;19.60;;
49826;SDS011;35715;51.570;6.036;2022-10-31T10:13:58;28.25;;;19.25;;
49826;SDS011;35715;51.570;6.036;2022-10-31T10:22:12;32.03;;;21.30;;
49826;SDS011;35715;51.570;6.036;2022-10-31T10:30:33;27.33;;;18.63;;
49826;SDS011;35715;51.570;6.036;2022-10-31T10:33:05;28.83;;;19.25;;
49826;SDS011;35715;51.570;6.036;2022-10-31T10:35:47;30.88;;;20.13;;
49826;SDS011;35715;51.570;6.036;2022-10-31T10:38:20;32.22;;;21.15;;
49826;SDS011;35715;51.570;6.036;2022-10-31T10:40:53;29.35;;;21.00;;
49826;SDS011;35715;51.570;6.036;2022-10-31T10:43:21;33.03;;;19.65;;
49826;SDS011;35715;51.570;6.036;2022-10-31T10:59:52;26.42;;;19.80;;
49826;SDS011;35715;51.570;6.036;2022-10-31T11:02:19;30.15;;;18.90;;
49826;SDS011;35715;51.570;6.036;2022-10-31T11:04:49;28.60;;;19.45;;
49826;SDS011;35715;51.570;6.036;2022-10-31T11:07:16;35.67;;;19.97;;
49826;SDS011;35715;51.570;6.036;2022-10-31T11:09:42;27.92;;;19.15;;
49826;SDS011;35715;51.570;6.036;2022-10-31T11:12:08;39.92;;;21.17;;
49826;SDS011;35715;51.570;6.036;2022-10-31T11:14:45;23.38;;;17.35;;
49826;SDS011;35715;51.570;6.036;2022-10-31T11:20:25;24.97;;;17.53;;
49826;SDS011;35715;51.570;6.036;2022-10-31T11:26:05;28.55;;;16.42;;
49826;SDS011;35715;51.570;6.036;2022-10-31T11:28:41;25.75;;;17.02;;
49826;SDS011;35715;51.570;6.036;2022-10-31T11:31:07;23.15;;;17.88;;
49826;SDS011;35715;51.570;6.036;2022-10-31T11:33:37;26.63;;;16.92;;
49826;SDS011;35715;51.570;6.036;2022-10-31T11:36:25;43.30;;;20.30;;
49826;SDS011;35715;51.570;6.036;2022-10-31T11:38:54;28.80;;;16.60;;
49826;SDS011;35715;51.570;6.036;2022-10-31T11:49:36;27.42;;;15.85;;
49826;SDS011;35715;51.570;6.036;2022-10-31T11:52:05;23.83;;;14.77;;
49826;SDS011;35715;51.570;6.036;2022-10-31T11:54:36;21.13;;;15.70;;
49826;SDS011;35715;51.570;6.036;2022-10-31T12:02:51;26.60;;;15.52;;
49826;SDS011;35715;51.570;6.036;2022-10-31T12:05:28;22.98;;;16.15;;
49826;SDS011;35715;51.570;6.036;2022-10-31T12:07:57;21.33;;;15.35;;
49826;SDS011;35715;51.570;6.036;2022-10-31T12:10:24;28.25;;;17.50;;
49826;SDS011;35715;51.570;6.036;2022-10-31T12:13:28;24.17;;;17.90;;
49826;SDS011;35715;51.570;6.036;2022-10-31T12:16:10;35.70;;;16.10;;
49826;SDS011;35715;51.570;6.036;2022-10-31T12:19:03;22.88;;;14.45;;
49826;SDS011;35715;51.570;6.036;2022-10-31T12:24:49;26.38;;;17.95;;
49826;SDS011;35715;51.570;6.036;2022-10-31T12:27:24;30.67;;;18.00;;
49826;SDS011;35715;51.570;6.036;2022-10-31T12:32:49;24.88;;;16.55;;
49826;SDS011;35715;51.570;6.036;2022-10-31T13:00:45;39.33;;;20.13;;
49826;SDS011;35715;51.570;6.036;2022-10-31T13:03:26;38.25;;;19.95;;
49826;SDS011;35715;51.570;6.036;2022-10-31T13:08:37;33.55;;;20.58;;
49826;SDS011;35715;51.570;6.036;2022-10-31T13:11:09;34.90;;;18.92;;
49826;SDS011;35715;51.570;6.036;2022-10-31T13:13:50;28.63;;;19.90;;
49826;SDS011;35715;51.570;6.036;2022-10-31T13:16:51;32.83;;;19.17;;
49826;SDS011;35715;51.570;6.036;2022-10-31T13:19:20;31.83;;;18.00;;
49826;SDS011;35715;51.570;6.036;2022-10-31T13:22:17;40.88;;;19.00;;
49826;SDS011;35715;51.570;6.036;2022-10-31T13:24:53;27.30;;;18.75;;
49826;SDS011;35715;51.570;6.036;2022-10-31T13:30:43;40.22;;;20.52;;
49826;SDS011;35715;51.570;6.036;2022-10-31T13:33:12;26.63;;;17.48;;
49826;SDS011;35715;51.570;6.036;2022-10-31T13:44:26;31.92;;;20.98;;
49826;SDS011;35715;51.570;6.036;2022-10-31T13:46:55;27.95;;;18.30;;
49826;SDS011;35715;51.570;6.036;2022-10-31T13:51:50;42.20;;;22.30;;
49826;SDS011;35715;51.570;6.036;2022-10-31T13:54:33;32.20;;;18.23;;
49826;SDS011;35715;51.570;6.036;2022-10-31T13:57:06;37.85;;;21.20;;
49826;SDS011;35715;51.570;6.036;2022-10-31T13:59:45;33.67;;;20.00;;
49826;SDS011;35715;51.570;6.036;2022-10-31T14:02:14;31.98;;;20.40;;
49826;SDS011;35715;51.570;6.036;2022-10-31T14:04:46;35.95;;;20.17;;
49826;SDS011;35715;51.570;6.036;2022-10-31T14:07:18;43.08;;;22.55;;
49826;SDS011;35715;51.570;6.036;2022-10-31T14:12:42;32.85;;;20.25;;
49826;SDS011;35715;51.570;6.036;2022-10-31T14:15:23;27.08;;;17.95;;
49826;SDS011;35715;51.570;6.036;2022-10-31T14:17:54;32.75;;;21.42;;
49826;SDS011;35715;51.570;6.036;2022-10-31T14:20:39;50.17;;;21.35;;
49826;SDS011;35715;51.570;6.036;2022-10-31T14:23:12;28.13;;;21.00;;
49826;SDS011;35715;51.570;6.036;2022-10-31T14:28:54;31.08;;;19.65;;
49826;SDS011;35715;51.570;6.036;2022-10-31T14:31:27;31.33;;;21.42;;
49826;SDS011;35715;51.570;6.036;2022-10-31T14:42:48;31.70;;;18.33;;
49826;SDS011;35715;51.570;6.036;2022-10-31T14:50:21;34.10;;;21.70;;
49826;SDS011;35715;51.570;6.036;2022-10-31T14:52:56;28.77;;;17.55;;
49826;SDS011;35715;51.570;6.036;2022-10-31T14:55:23;30.70;;;18.00;;
49826;SDS011;35715;51.570;6.036;2022-10-31T14:58:13;22.42;;;16.85;;
49826;SDS011;35715;51.570;6.036;2022-10-31T15:00:41;29.00;;;16.02;;
49826;SDS011;35715;51.570;6.036;2022-10-31T15:03:15;37.40;;;15.80;;
49826;SDS011;35715;51.570;6.036;2022-10-31T15:05:55;22.98;;;13.80;;
49826;SDS011;35715;51.570;6.036;2022-10-31T15:08:27;24.80;;;12.05;;
49826;SDS011;35715;51.570;6.036;2022-10-31T15:10:59;22.08;;;10.07;;
49826;SDS011;35715;51.570;6.036;2022-10-31T15:13:28;14.43;;;8.55;;
49826;SDS011;35715;51.570;6.036;2022-10-31T15:15:55;25.70;;;9.55;;
49826;SDS011;35715;51.570;6.036;2022-10-31T15:18:22;15.50;;;9.50;;
49826;SDS011;35715;51.570;6.036;2022-10-31T15:20:51;16.17;;;8.93;;
49826;SDS011;35715;51.570;6.036;2022-10-31T15:23:23;12.55;;;7.68;;
49826;SDS011;35715;51.570;6.036;2022-10-31T15:25:50;12.02;;;7.57;;
49826;SDS011;35715;51.570;6.036;2022-10-31T15:28:24;14.85;;;7.25;;
49826;SDS011;35715;51.570;6.036;2022-10-31T15:30:51;14.30;;;7.20;;
49826;SDS011;35715;51.570;6.036;2022-10-31T15:33:30;20.83;;;8.57;;
49826;SDS011;35715;51.570;6.036;2022-10-31T15:36:01;17.25;;;9.35;;
49826;SDS011;35715;51.570;6.036;2022-10-31T15:38:27;12.85;;;7.72;;
49826;SDS011;35715;51.570;6.036;2022-10-31T15:41:01;14.77;;;6.53;;
49826;SDS011;35715;51.570;6.036;2022-10-31T15:43:33;12.40;;;6.88;;
49826;SDS011;35715;51.570;6.036;2022-10-31T15:48:33;10.32;;;6.10;;
49826;SDS011;35715;51.570;6.036;2022-10-31T15:50:59;15.75;;;7.57;;
49826;SDS011;35715;51.570;6.036;2022-10-31T15:56:28;12.63;;;6.97;;
49826;SDS011;35715;51.570;6.036;2022-10-31T15:58:56;12.57;;;6.20;;
49826;SDS011;35715;51.570;6.036;2022-10-31T16:09:27;13.25;;;6.50;;
49826;SDS011;35715;51.570;6.036;2022-10-31T16:14:27;9.68;;;6.07;;
49826;SDS011;35715;51.570;6.036;2022-10-31T16:17:04;16.97;;;6.17;;
49826;SDS011;35715;51.570;6.036;2022-10-31T16:19:36;11.13;;;5.70;;
49826;SDS011;35715;51.570;6.036;2022-10-31T16:22:13;7.53;;;5.93;;
49826;SDS011;35715;51.570;6.036;2022-10-31T16:24:48;12.02;;;4.70;;
49826;SDS011;35715;51.570;6.036;2022-10-31T16:27:19;11.18;;;5.60;;
49826;SDS011;35715;51.570;6.036;2022-10-31T16:29:52;14.80;;;6.25;;
49826;SDS011;35715;51.570;6.036;2022-10-31T16:32:28;15.15;;;5.63;;
49826;SDS011;35715;51.570;6.036;2022-10-31T16:37:33;17.90;;;6.45;;
49826;SDS011;35715;51.570;6.036;2022-10-31T16:39:58;16.20;;;7.40;;
49826;SDS011;35715;51.570;6.036;2022-10-31T16:42:24;16.00;;;5.68;;
49826;SDS011;35715;51.570;6.036;2022-10-31T16:44:51;11.18;;;6.30;;
49826;SDS011;35715;51.570;6.036;2022-10-31T16:47:32;37.22;;;7.75;;
49826;SDS011;35715;51.570;6.036;2022-10-31T16:49:57;9.65;;;5.38;;
49826;SDS011;35715;51.570;6.036;2022-10-31T16:52:24;11.10;;;5.05;;
49826;SDS011;35715;51.570;6.036;2022-10-31T16:54:50;23.02;;;6.90;;
49826;SDS011;35715;51.570;6.036;2022-10-31T17:00:02;11.57;;;5.00;;
49826;SDS011;35715;51.570;6.036;2022-10-31T17:02:28;14.80;;;6.35;;
49826;SDS011;35715;51.570;6.036;2022-10-31T17:04:54;24.35;;;6.85;;
49826;SDS011;35715;51.570;6.036;2022-10-31T17:07:27;19.55;;;6.07;;
49826;SDS011;35715;51.570;6.036;2022-10-31T17:09:52;10.65;;;4.72;;
49826;SDS011;35715;51.570;6.036;2022-10-31T17:12:18;10.73;;;6.00;;
49826;SDS011;35715;51.570;6.036;2022-10-31T17:14:48;32.30;;;5.78;;
49826;SDS011;35715;51.570;6.036;2022-10-31T17:17:16;11.23;;;4.38;;
49826;SDS011;35715;51.570;6.036;2022-10-31T17:19:42;9.45;;;4.47;;
49826;SDS011;35715;51.570;6.036;2022-10-31T17:22:09;18.80;;;6.38;;
49826;SDS011;35715;51.570;6.036;2022-10-31T17:24:36;21.48;;;6.68;;
49826;SDS011;35715;51.570;6.036;2022-10-31T17:27:01;16.98;;;6.20;;
49826;SDS011;35715;51.570;6.036;2022-10-31T17:29:27;9.00;;;4.88;;
49826;SDS011;35715;51.570;6.036;2022-10-31T17:31:52;16.15;;;4.60;;
49826;SDS011;35715;51.570;6.036;2022-10-31T17:34:17;23.95;;;6.40;;
49826;SDS011;35715;51.570;6.036;2022-10-31T17:36:50;10.55;;;5.13;;
49826;SDS011;35715;51.570;6.036;2022-10-31T17:39:16;11.35;;;5.47;;
49826;SDS011;35715;51.570;6.036;2022-10-31T17:41:42;9.25;;;5.63;;
49826;SDS011;35715;51.570;6.036;2022-10-31T17:44:11;12.02;;;4.90;;
49826;SDS011;35715;51.570;6.036;2022-10-31T17:46:50;12.50;;;4.88;;
49826;SDS011;35715;51.570;6.036;2022-10-31T17:49:15;7.22;;;4.82;;
49826;SDS011;35715;51.570;6.036;2022-10-31T17:51:41;17.70;;;5.65;;
49826;SDS011;35715;51.570;6.036;2022-10-31T17:54:06;16.75;;;5.93;;
49826;SDS011;35715;51.570;6.036;2022-10-31T17:56:33;13.52;;;5.05;;
49826;SDS011;35715;51.570;6.036;2022-10-31T17:58:58;13.38;;;5.15;;
49826;SDS011;35715;51.570;6.036;2022-10-31T18:01:24;14.98;;;6.43;;
49826;SDS011;35715;51.570;6.036;2022-10-31T18:03:49;19.20;;;4.53;;